Time;durP1;ratioP1;P1;durP2;ratioP2;P2;SDS_P1;SDS_P2;PMS_P1;PMS_P2;Temp;Humidity;BMP_temperature;BMP_pressure;BME280_temperature;BME280_humidity;BME280_pressure;Samples;Min_cycle;Max_cycle;Signal;HPM_P1;HPM_P2
2022/09/29 00:02:02;;;;;;;;;5.00;3.80;27.40;99.70;;;;;;4979907;28;8856;-63
2022/09/29 00:04:31;;;;;;;;;4.00;4.00;27.40;99.90;;;;;;5000695;28;8900;-58
2022/09/29 00:07:12;;;;;;;;;6.25;6.25;27.30;99.90;;;;;;5002038;28;8843;-58
2022/09/29 00:09:46;;;;;;;;;6.00;6.00;27.20;99.90;;;;;;5003048;28;8869;-61
2022/09/29 00:12:18;;;;;;;;;6.00;6.00;27.00;99.90;;;;;;4993151;28;8879;-62
2022/09/29 00:14:50;;;;;;;;;7.00;5.00;26.90;99.90;;;;;;5003686;28;8881;-58
2022/09/29 00:17:20;;;;;;;;;4.00;4.00;26.80;99.90;;;;;;4987570;28;8907;-58
2022/09/29 00:19:50;;;;;;;;;3.75;3.75;26.70;99.90;;;;;;5000789;28;9571;-58
2022/09/29 00:22:22;;;;;;;;;3.00;3.00;26.70;99.90;;;;;;4999903;28;8857;-58
2022/09/29 00:24:53;;;;;;;;;2.00;2.00;26.60;99.90;;;;;;5001885;28;8887;-58
2022/09/29 00:27:23;;;;;;;;;2.50;2.50;26.50;99.90;;;;;;4994737;28;8866;-58
2022/09/29 00:29:54;;;;;;;;;3.50;3.50;26.50;99.90;;;;;;4991207;28;9867;-58
2022/09/29 00:32:25;;;;;;;;;3.00;3.00;26.40;99.90;;;;;;4975375;28;8848;-58
2022/09/29 00:34:55;;;;;;;;;3.00;3.00;26.40;99.90;;;;;;4975407;28;8843;-62
2022/09/29 00:37:27;;;;;;;;;3.00;3.00;26.20;99.90;;;;;;4993752;28;8844;-68
2022/09/29 00:40:00;;;;;;;;;3.00;3.00;26.20;99.90;;;;;;4999097;28;8842;-73
2022/09/29 00:42:32;;;;;;;;;3.25;3.25;26.10;99.90;;;;;;4982137;28;8860;-71
2022/09/29 00:45:15;;;;;;;;;2.25;2.25;26.00;99.90;;;;;;4994335;28;8858;-72
2022/09/29 00:47:52;;;;;;;;;2.50;2.50;25.90;99.90;;;;;;4981419;28;9655;-71
2022/09/29 00:50:39;;;;;;;;;3.25;3.25;25.90;99.90;;;;;;5003740;28;8866;-73
2022/09/29 00:53:15;;;;;;;;;5.00;5.00;25.70;99.90;;;;;;5000968;28;9986;-69
2022/09/29 00:55:59;;;;;;;;;4.50;4.00;25.70;99.90;;;;;;4986951;28;8871;-69
2022/09/29 00:58:32;;;;;;;;;3.00;3.00;25.60;99.90;;;;;;4984508;28;8841;-64
2022/09/29 01:01:07;;;;;;;;;3.00;3.00;25.50;99.90;;;;;;4999706;28;9592;-64
2022/09/29 01:03:45;;;;;;;;;3.50;3.50;25.50;99.90;;;;;;5006895;28;8860;-58
2022/09/29 01:06:28;;;;;;;;;4.00;4.00;25.40;99.90;;;;;;4999633;28;8832;-58
2022/09/29 01:09:06;;;;;;;;;3.00;3.00;25.40;99.90;;;;;;4980118;28;8849;-57
2022/09/29 01:11:41;;;;;;;;;3.50;3.50;25.40;99.90;;;;;;4997405;28;8847;-57
2022/09/29 01:14:15;;;;;;;;;2.00;2.00;25.40;99.90;;;;;;4993373;28;8859;-57
2022/09/29 01:16:47;;;;;;;;;2.00;2.00;25.30;99.90;;;;;;4987457;28;8856;-57
2022/09/29 01:19:51;;;;;;;;;3.00;3.00;25.20;99.90;;;;;;4997086;28;8909;-56
2022/09/29 01:22:59;;;;;;;;;2.50;2.50;25.20;99.90;;;;;;4966750;28;8882;-57
2022/09/29 01:25:47;;;;;;;;;3.00;3.00;25.10;99.90;;;;;;4932203;28;8839;-65
2022/09/29 01:28:46;;;;;;;;;3.00;3.00;25.10;99.90;;;;;;4995770;28;8858;-63
2022/09/29 01:31:30;;;;;;;;;3.25;3.25;25.10;99.90;;;;;;4995980;28;8838;-61
2022/09/29 01:34:19;;;;;;;;;3.00;3.00;24.90;99.90;;;;;;4994081;28;9572;-58
2022/09/29 01:36:53;;;;;;;;;3.25;3.25;24.80;99.90;;;;;;4994157;28;8976;-59
2022/09/29 01:39:46;;;;;;;;;3.50;3.50;24.80;99.90;;;;;;5008317;28;8836;-58
2022/09/29 01:42:22;;;;;;;;;3.00;3.00;24.70;99.90;;;;;;4992531;28;8833;-58
2022/09/29 01:45:15;;;;;;;;;4.00;4.00;24.60;99.90;;;;;;4998489;28;8879;-62
2022/09/29 01:47:55;;;;;;;;;5.00;3.00;24.50;99.90;;;;;;5001373;28;8825;-58
2022/09/29 01:50:50;;;;;;;;;4.25;4.25;24.60;99.90;;;;;;5001906;28;9013;-58
2022/09/29 01:53:30;;;;;;;;;3.25;3.25;24.80;99.90;;;;;;4999476;28;8836;-62
2022/09/29 01:56:08;;;;;;;;;4.75;4.25;24.80;99.90;;;;;;4997549;28;8854;-61
2022/09/29 01:58:55;;;;;;;;;3.25;3.25;24.50;99.90;;;;;;4996217;28;8851;-62
2022/09/29 02:01:34;;;;;;;;;4.00;4.00;24.50;99.90;;;;;;5001145;28;8900;-63
2022/09/29 02:04:32;;;;;;;;;4.25;4.25;24.30;99.90;;;;;;5007116;28;8830;-62
2022/09/29 02:07:24;;;;;;;;;5.00;5.00;24.20;99.90;;;;;;4981552;28;9585;-62
2022/09/29 02:10:06;;;;;;;;;4.00;4.00;24.20;99.90;;;;;;4985058;28;8870;-63
2022/09/29 02:12:40;;;;;;;;;4.75;4.75;24.10;99.90;;;;;;4986978;28;8912;-59
2022/09/29 02:15:19;;;;;;;;;4.00;4.00;24.10;99.90;;;;;;4979886;28;9009;-61
2022/09/29 02:17:52;;;;;;;;;3.25;3.25;24.00;99.90;;;;;;4977593;28;8873;-58
2022/09/29 02:20:25;;;;;;;;;5.00;5.00;23.90;99.90;;;;;;4977806;28;8842;-59
2022/09/29 02:22:58;;;;;;;;;4.00;4.00;23.80;99.90;;;;;;4975740;28;8850;-62
2022/09/29 02:25:38;;;;;;;;;5.00;5.00;23.90;99.90;;;;;;4977572;28;8854;-62
2022/09/29 02:28:08;;;;;;;;;4.25;4.25;23.80;99.90;;;;;;4975970;28;8862;-61
2022/09/29 02:30:39;;;;;;;;;4.25;4.25;23.70;99.90;;;;;;4961281;28;8858;-62
2022/09/29 02:33:24;;;;;;;;;6.00;6.00;23.60;99.90;;;;;;4959584;28;8888;-57
2022/09/29 02:36:12;;;;;;;;;2.75;2.75;23.60;99.90;;;;;;4970297;28;8883;-57
2022/09/29 02:38:51;;;;;;;;;4.00;4.00;23.70;99.90;;;;;;4953276;28;8862;-61
2022/09/29 02:41:32;;;;;;;;;4.75;4.75;23.60;99.90;;;;;;4971591;28;8863;-61
2022/09/29 02:44:26;;;;;;;;;5.75;5.00;23.60;99.90;;;;;;4976367;28;8850;-61
2022/09/29 02:47:06;;;;;;;;;4.00;4.00;23.50;99.90;;;;;;4976275;28;8823;-62
2022/09/29 02:49:40;;;;;;;;;3.25;3.25;23.50;99.90;;;;;;4974053;28;9017;-62
2022/09/29 02:52:23;;;;;;;;;4.50;4.50;23.50;99.90;;;;;;4976425;28;8834;-62
2022/09/29 02:55:19;;;;;;;;;4.00;4.00;23.40;99.90;;;;;;4957618;28;8859;-58
2022/09/29 02:58:05;;;;;;;;;6.00;4.25;23.40;99.90;;;;;;4973635;28;8842;-62
2022/09/29 03:00:38;;;;;;;;;6.50;6.50;23.30;99.90;;;;;;4944410;28;8837;-62
2022/09/29 03:03:09;;;;;;;;;4.00;4.00;23.30;99.90;;;;;;4974051;28;8854;-62
2022/09/29 03:05:41;;;;;;;;;4.75;4.75;23.30;99.90;;;;;;4973886;28;8851;-61
2022/09/29 03:08:13;;;;;;;;;3.75;3.75;23.20;99.90;;;;;;4975234;28;8863;-58
2022/09/29 03:10:47;;;;;;;;;4.50;4.50;23.20;99.90;;;;;;4955144;28;8895;-58
2022/09/29 03:13:19;;;;;;;;;4.00;4.00;23.10;99.90;;;;;;4980177;28;8865;-58
2022/09/29 03:15:51;;;;;;;;;3.00;3.00;23.10;99.90;;;;;;4996212;28;8861;-57
2022/09/29 03:18:27;;;;;;;;;3.00;3.00;23.20;99.90;;;;;;4999463;28;8807;-58
2022/09/29 03:20:57;;;;;;;;;2.25;2.25;23.20;99.90;;;;;;4975922;28;8836;-58
2022/09/29 03:23:28;;;;;;;;;3.00;3.00;23.00;99.90;;;;;;4978008;28;8862;-62
2022/09/29 03:25:59;;;;;;;;;4.00;4.00;22.90;99.90;;;;;;4979744;28;8898;-61
2022/09/29 03:28:34;;;;;;;;;3.50;3.50;22.90;99.90;;;;;;4998493;28;8853;-61
2022/09/29 03:31:11;;;;;;;;;3.50;3.50;22.90;99.90;;;;;;5000406;28;8858;-63
2022/09/29 03:33:42;;;;;;;;;4.00;4.00;22.80;99.90;;;;;;4975947;28;8849;-58
2022/09/29 03:36:14;;;;;;;;;4.50;4.50;22.80;99.90;;;;;;5005970;28;8859;-57
2022/09/29 03:38:45;;;;;;;;;4.00;4.00;22.70;99.90;;;;;;4996088;28;8834;-61
2022/09/29 03:41:19;;;;;;;;;3.00;3.00;22.70;99.90;;;;;;5000564;28;8975;-61
2022/09/29 03:43:49;;;;;;;;;3.00;3.00;22.70;99.90;;;;;;5000629;28;8871;-57
2022/09/29 03:46:20;;;;;;;;;5.00;4.25;22.60;99.90;;;;;;4998715;28;8853;-58
2022/09/29 03:48:52;;;;;;;;;0.00;0.00;22.60;99.90;;;;;;5000593;28;8850;-58
2022/09/29 03:51:24;;;;;;;;;3.75;3.75;22.60;99.90;;;;;;4981551;28;8866;-58
2022/09/29 03:53:55;;;;;;;;;3.00;3.00;22.50;99.90;;;;;;4986036;28;9495;-59
2022/09/29 03:56:25;;;;;;;;;4.00;4.00;22.50;99.90;;;;;;4984512;28;8854;-58
2022/09/29 03:58:56;;;;;;;;;3.00;3.00;22.50;99.90;;;;;;4982096;28;8830;-57
2022/09/29 04:01:27;;;;;;;;;4.00;4.00;22.50;99.90;;;;;;4995516;28;8879;-58
2022/09/29 04:04:00;;;;;;;;;5.00;5.00;22.40;99.90;;;;;;4983577;28;8844;-58
2022/09/29 04:06:35;;;;;;;;;4.25;4.25;22.50;99.90;;;;;;4980274;28;8864;-58
2022/09/29 04:09:09;;;;;;;;;3.75;3.75;22.50;99.90;;;;;;4981592;28;8826;-57
2022/09/29 04:11:46;;;;;;;;;4.75;4.75;22.40;99.90;;;;;;5000430;28;8872;-58
2022/09/29 04:14:16;;;;;;;;;4.25;4.25;22.40;99.90;;;;;;4980213;28;8857;-62
2022/09/29 04:16:47;;;;;;;;;4.75;4.00;22.30;99.90;;;;;;4995402;28;8962;-62
2022/09/29 04:19:20;;;;;;;;;5.00;4.00;22.30;99.90;;;;;;4979458;28;8832;-59
2022/09/29 04:21:55;;;;;;;;;4.50;4.50;22.30;99.90;;;;;;4984579;28;8852;-58
2022/09/29 04:24:27;;;;;;;;;4.25;4.00;22.20;99.90;;;;;;4972334;28;8851;-58
2022/09/29 04:27:07;;;;;;;;;4.50;4.50;22.20;99.90;;;;;;4990573;28;8833;-59
2022/09/29 04:29:39;;;;;;;;;5.00;5.00;22.10;99.90;;;;;;5003717;28;8864;-58
2022/09/29 04:32:10;;;;;;;;;3.00;3.00;22.10;99.90;;;;;;4998677;28;9615;-59
2022/09/29 04:34:44;;;;;;;;;3.75;3.75;22.00;99.90;;;;;;5001348;28;8962;-57
2022/09/29 04:37:15;;;;;;;;;4.25;4.25;22.00;99.90;;;;;;4980687;28;8849;-58
2022/09/29 04:39:53;;;;;;;;;4.00;4.00;21.90;99.90;;;;;;5002040;28;8826;-57
2022/09/29 04:42:28;;;;;;;;;4.00;4.00;22.00;99.90;;;;;;4987315;28;8891;-59
2022/09/29 04:45:06;;;;;;;;;4.00;4.00;22.00;99.90;;;;;;5001964;28;8878;-58
2022/09/29 04:47:36;;;;;;;;;4.25;4.25;21.90;99.90;;;;;;5002513;28;8834;-61
2022/09/29 04:50:06;;;;;;;;;5.00;5.00;21.70;99.90;;;;;;5003479;28;8842;-62
2022/09/29 04:52:36;;;;;;;;;2.50;2.50;21.60;99.90;;;;;;4991605;28;9485;-60
2022/09/29 04:55:10;;;;;;;;;5.00;5.00;21.50;99.90;;;;;;4999726;28;9592;-63
2022/09/29 04:57:43;;;;;;;;;4.00;4.00;21.60;99.90;;;;;;4971028;28;8842;-59
2022/09/29 05:00:16;;;;;;;;;3.75;3.75;21.60;99.90;;;;;;5004871;28;8882;-58
2022/09/29 05:02:45;;;;;;;;;5.25;5.00;21.60;99.90;;;;;;4995544;28;8856;-61
2022/09/29 05:05:18;;;;;;;;;4.25;4.25;21.60;99.90;;;;;;5001839;28;8850;-62
2022/09/29 05:07:51;;;;;;;;;5.00;5.00;21.60;99.90;;;;;;4979200;28;8856;-58
2022/09/29 05:10:30;;;;;;;;;3.00;3.00;21.50;99.90;;;;;;4973617;28;8836;-59
2022/09/29 05:13:01;;;;;;;;;4.00;4.00;21.40;99.90;;;;;;4996415;28;8854;-58
2022/09/29 05:15:32;;;;;;;;;5.00;4.00;21.30;99.90;;;;;;4986696;28;8959;-58
2022/09/29 05:18:04;;;;;;;;;4.00;4.00;21.40;99.90;;;;;;4983594;28;8834;-57
2022/09/29 05:20:36;;;;;;;;;3.50;3.50;21.30;99.90;;;;;;4997012;28;8873;-57
2022/09/29 05:23:23;;;;;;;;;2.25;2.25;21.30;99.90;;;;;;5000656;28;8826;-63
2022/09/29 05:25:53;;;;;;;;;3.25;3.25;21.30;99.90;;;;;;4998700;28;8874;-62
2022/09/29 05:28:24;;;;;;;;;6.75;5.00;21.40;99.90;;;;;;5002435;28;9648;-58
2022/09/29 05:30:54;;;;;;;;;5.00;5.00;21.40;99.90;;;;;;4984682;28;8854;-58
2022/09/29 05:33:25;;;;;;;;;2.25;2.25;21.30;99.90;;;;;;4983162;28;8854;-58
2022/09/29 05:35:55;;;;;;;;;2.25;2.25;21.30;99.90;;;;;;4986931;28;8835;-61
2022/09/29 05:38:27;;;;;;;;;5.25;5.25;21.30;99.90;;;;;;5001995;28;8842;-63
2022/09/29 05:40:59;;;;;;;;;4.25;4.25;21.10;99.90;;;;;;5009623;28;8891;-61
2022/09/29 05:43:33;;;;;;;;;6.50;5.00;21.10;99.90;;;;;;5001232;28;8877;-61
2022/09/29 05:46:08;;;;;;;;;3.00;3.00;21.00;99.90;;;;;;4984453;28;8859;-62
2022/09/29 05:48:39;;;;;;;;;5.00;5.00;21.10;99.90;;;;;;4991269;28;8818;-62
2022/09/29 05:51:14;;;;;;;;;4.00;4.00;21.10;99.90;;;;;;5003240;28;8939;-62
2022/09/29 05:53:53;;;;;;;;;5.33;5.33;21.00;99.90;;;;;;4988211;28;9542;-58
2022/09/29 05:56:30;;;;;;;;;5.00;5.00;21.00;99.90;;;;;;4998639;28;8841;-57
2022/09/29 05:59:00;;;;;;;;;4.50;4.00;21.10;99.90;;;;;;5004884;28;8864;-62
2022/09/29 06:01:33;;;;;;;;;5.25;5.25;20.90;99.90;;;;;;4996242;28;8857;-61
2022/09/29 06:04:07;;;;;;;;;6.25;6.00;20.90;99.90;;;;;;5001886;28;8894;-61
2022/09/29 06:06:39;;;;;;;;;6.50;6.00;20.90;99.90;;;;;;5008640;28;8862;-63
2022/09/29 06:09:10;;;;;;;;;4.25;4.25;21.00;99.90;;;;;;4988275;28;8886;-62
2022/09/29 06:11:41;;;;;;;;;4.50;4.50;20.90;99.90;;;;;;4999568;28;9558;-60
2022/09/29 06:14:10;;;;;;;;;4.25;4.25;21.00;99.90;;;;;;5002968;28;8827;-58
2022/09/29 06:16:40;;;;;;;;;3.50;3.25;20.80;99.90;;;;;;5000770;28;8904;-57
2022/09/29 06:19:12;;;;;;;;;5.00;5.00;20.90;99.90;;;;;;5001188;28;8840;-57
2022/09/29 06:21:43;;;;;;;;;4.00;4.00;20.90;99.90;;;;;;5004057;28;8865;-57
2022/09/29 06:24:15;;;;;;;;;5.00;5.00;20.90;99.90;;;;;;4987920;28;8823;-63
2022/09/29 06:26:46;;;;;;;;;5.00;5.00;20.90;99.90;;;;;;5000821;28;8835;-61
2022/09/29 06:29:19;;;;;;;;;6.00;6.00;20.80;99.90;;;;;;5005404;28;9833;-63
2022/09/29 06:31:57;;;;;;;;;5.00;5.00;20.80;99.90;;;;;;4982087;28;8845;-62
2022/09/29 06:34:29;;;;;;;;;5.25;5.25;20.70;99.90;;;;;;4995506;28;8975;-61
2022/09/29 06:39:56;;;;;;;;;4.00;4.00;20.60;99.90;;;;;;4994404;28;8834;-62
2022/09/29 06:42:25;;;;;;;;;5.75;5.75;20.50;99.90;;;;;;4972852;28;8830;-62
2022/09/29 06:44:58;;;;;;;;;5.25;5.25;20.40;99.90;;;;;;4996004;28;8856;-58
2022/09/29 06:47:29;;;;;;;;;4.50;4.50;20.40;99.90;;;;;;5003099;28;8862;-58
2022/09/29 06:50:01;;;;;;;;;5.25;5.25;20.40;99.90;;;;;;5009359;28;8859;-62
2022/09/29 06:52:43;;;;;;;;;3.00;3.00;20.40;99.90;;;;;;5003565;28;8886;-61
2022/09/29 06:55:30;;;;;;;;;5.75;5.75;20.50;99.90;;;;;;4989733;28;8874;-61
2022/09/29 06:58:00;;;;;;;;;5.25;5.25;20.50;99.90;;;;;;4998182;28;8832;-57
2022/09/29 07:00:38;;;;;;;;;5.50;5.50;20.40;99.90;;;;;;4990949;28;8901;-58
2022/09/29 07:03:08;;;;;;;;;2.00;2.00;20.30;99.90;;;;;;4998429;28;8902;-57
2022/09/29 07:05:43;;;;;;;;;6.75;6.75;20.30;99.90;;;;;;5004110;28;8886;-57
2022/09/29 07:08:30;;;;;;;;;5.25;5.25;20.40;99.90;;;;;;4996611;28;8849;-62
2022/09/29 07:11:04;;;;;;;;;4.75;4.75;20.20;99.90;;;;;;5002493;28;8847;-62
2022/09/29 07:13:35;;;;;;;;;7.25;5.50;20.20;99.90;;;;;;5001334;28;9578;-58
2022/09/29 07:16:12;;;;;;;;;5.75;5.75;20.20;99.90;;;;;;5001137;28;8852;-57
2022/09/29 07:18:46;;;;;;;;;4.00;4.00;20.10;99.90;;;;;;5005391;28;8853;-61
2022/09/29 07:21:17;;;;;;;;;5.33;5.33;20.00;99.90;;;;;;4995677;28;8869;-62
2022/09/29 07:23:48;;;;;;;;;6.50;6.00;20.20;99.90;;;;;;4982766;28;8840;-56
2022/09/29 07:26:19;;;;;;;;;5.50;5.50;20.10;99.90;;;;;;4997159;28;10164;-57
2022/09/29 07:28:49;;;;;;;;;4.50;4.50;20.10;99.90;;;;;;5005467;28;9585;-62
2022/09/29 07:31:21;;;;;;;;;5.00;5.00;20.10;99.90;;;;;;4984243;28;8869;-61
2022/09/29 07:33:52;;;;;;;;;5.00;5.00;19.90;99.90;;;;;;4998837;28;8850;-57
2022/09/29 07:36:22;;;;;;;;;4.75;4.75;19.90;99.90;;;;;;4996004;28;8887;-58
2022/09/29 07:38:52;;;;;;;;;2.50;2.50;19.90;99.90;;;;;;4982622;28;8965;-61
2022/09/29 07:41:23;;;;;;;;;3.00;3.00;19.90;99.90;;;;;;5005120;28;8881;-62
2022/09/29 07:43:54;;;;;;;;;4.00;4.00;19.90;99.90;;;;;;5005300;28;8899;-57
2022/09/29 07:46:25;;;;;;;;;3.00;3.00;19.90;99.90;;;;;;5002716;28;8866;-56
2022/09/29 07:48:55;;;;;;;;;4.25;4.25;19.80;99.90;;;;;;5004644;28;8848;-58
2022/09/29 07:51:25;;;;;;;;;6.00;4.00;19.80;99.90;;;;;;5005840;28;8890;-58
2022/09/29 07:54:00;;;;;;;;;5.50;5.50;19.90;99.90;;;;;;4965482;28;8830;-62
2022/09/29 07:56:30;;;;;;;;;4.50;4.50;19.90;99.90;;;;;;5006061;28;8844;-62
2022/09/29 07:59:01;;;;;;;;;5.00;5.00;19.90;99.90;;;;;;5004073;28;8879;-57
2022/09/29 08:01:36;;;;;;;;;6.00;6.00;19.80;99.90;;;;;;5007026;28;8835;-58
2022/09/29 08:04:05;;;;;;;;;3.50;3.50;19.80;99.90;;;;;;4998921;28;9641;-62
2022/09/29 08:06:36;;;;;;;;;4.50;4.50;19.80;99.90;;;;;;5000366;28;8880;-62
2022/09/29 08:09:06;;;;;;;;;5.00;5.00;19.80;99.90;;;;;;4989707;28;8876;-58
2022/09/29 08:11:42;;;;;;;;;1.00;1.00;19.80;99.90;;;;;;4996918;28;8889;-58
2022/09/29 08:14:12;;;;;;;;;5.50;5.50;19.80;99.90;;;;;;4980498;28;9575;-58
2022/09/29 08:16:42;;;;;;;;;4.25;4.25;19.80;99.90;;;;;;4988790;28;8847;-58
2022/09/29 08:19:13;;;;;;;;;5.00;5.00;19.90;99.90;;;;;;5003130;28;8886;-61
2022/09/29 08:21:48;;;;;;;;;9.00;7.25;19.80;99.90;;;;;;5005203;28;8831;-61
2022/09/29 08:24:19;;;;;;;;;7.50;6.00;19.70;99.90;;;;;;5002287;28;8850;-61
2022/09/29 08:26:56;;;;;;;;;3.25;3.25;19.70;99.90;;;;;;4996615;28;8862;-62
2022/09/29 08:29:30;;;;;;;;;5.50;5.50;19.80;99.90;;;;;;5001627;28;8882;-57
2022/09/29 08:32:16;;;;;;;;;5.00;5.00;19.70;99.90;;;;;;4998968;28;8856;-58
2022/09/29 08:34:48;;;;;;;;;6.00;6.00;19.70;99.90;;;;;;4991673;28;8842;-57
2022/09/29 08:37:18;;;;;;;;;4.25;4.25;19.70;99.90;;;;;;4996695;28;8846;-57
2022/09/29 08:39:48;;;;;;;;;4.25;4.25;19.70;99.90;;;;;;4990160;28;8996;-62
2022/09/29 08:42:34;;;;;;;;;4.50;4.50;19.70;99.90;;;;;;4999908;28;8833;-61
2022/09/29 08:45:41;;;;;;;;;7.00;7.00;19.70;99.90;;;;;;4998299;28;8894;-61
2022/09/29 08:48:34;;;;;;;;;4.00;4.00;19.70;99.90;;;;;;5001637;28;8831;-57
2022/09/29 08:51:32;;;;;;;;;7.75;6.00;19.70;99.90;;;;;;4993026;28;8859;-57
2022/09/29 08:54:26;;;;;;;;;5.75;5.75;19.70;99.90;;;;;;4998624;28;8877;-61
2022/09/29 08:57:17;;;;;;;;;5.75;5.75;19.60;99.90;;;;;;4996905;28;8818;-62
2022/09/29 08:59:57;;;;;;;;;4.75;4.75;19.60;99.90;;;;;;4980920;28;8854;-57
2022/09/29 09:03:05;;;;;;;;;5.00;5.00;19.60;99.90;;;;;;4999337;28;8854;-57
2022/09/29 09:05:55;;;;;;;;;7.00;7.00;19.50;99.90;;;;;;4979828;28;8996;-58
2022/09/29 09:08:42;;;;;;;;;5.75;5.75;19.40;99.90;;;;;;5002546;28;8867;-58
2022/09/29 09:11:50;;;;;;;;;6.25;5.25;19.40;99.90;;;;;;4999100;28;8890;-57
2022/09/29 09:15:02;;;;;;;;;4.67;4.00;19.40;99.90;;;;;;4998928;28;8866;-57
2022/09/29 09:17:57;;;;;;;;;6.00;6.00;19.40;99.90;;;;;;4982407;28;8932;-57
2022/09/29 09:20:46;;;;;;;;;5.00;4.50;19.40;99.90;;;;;;4998596;28;9668;-61
2022/09/29 09:23:20;;;;;;;;;5.25;5.25;19.30;99.90;;;;;;5008705;28;8807;-58
2022/09/29 09:26:01;;;;;;;;;4.25;4.25;19.20;99.90;;;;;;5004872;28;8841;-58
2022/09/29 09:28:47;;;;;;;;;4.25;4.25;19.10;99.90;;;;;;5002953;28;8850;-61
2022/09/29 09:31:32;;;;;;;;;4.67;4.67;19.00;99.90;;;;;;4981732;28;9888;-61
2022/09/29 09:34:59;;;;;;;;;4.33;4.33;19.10;99.90;;;;;;4997248;28;9045;-62
2022/09/29 09:37:52;;;;;;;;;6.00;6.00;19.10;99.90;;;;;;4921850;28;9108;-57
2022/09/29 09:40:31;;;;;;;;;4.33;4.33;19.00;99.90;;;;;;5003049;28;9907;-57
2022/09/29 09:43:19;;;;;;;;;2.00;2.00;18.90;99.90;;;;;;4998591;28;8909;-58
2022/09/29 09:45:56;;;;;;;;;4.67;4.67;18.90;99.90;;;;;;4998974;28;9003;-58
2022/09/29 09:49:20;;;;;;;;;4.75;4.75;18.90;99.90;;;;;;4997842;28;9190;-58
2022/09/29 09:52:04;;;;;;;;;5.00;5.00;18.80;99.90;;;;;;4984757;28;8840;-57
2022/09/29 09:55:03;;;;;;;;;5.25;5.25;18.70;99.90;;;;;;4981076;28;9903;-62
2022/09/29 09:58:02;;;;;;;;;6.00;6.00;18.70;99.90;;;;;;4995293;28;8862;-62
2022/09/29 10:00:38;;;;;;;;;3.00;3.00;18.60;99.90;;;;;;4999604;28;8880;-63
2022/09/29 10:03:11;;;;;;;;;6.33;5.33;18.50;99.90;;;;;;4980931;28;8874;-61
2022/09/29 10:05:44;;;;;;;;;4.00;4.00;18.50;99.90;;;;;;5000160;28;8951;-62
2022/09/29 10:08:28;;;;;;;;;5.00;5.00;18.50;99.90;;;;;;5007105;28;9207;-57
2022/09/29 10:10:59;;;;;;;;;5.00;5.00;18.40;99.90;;;;;;4999455;28;8915;-56
2022/09/29 10:13:31;;;;;;;;;5.67;5.67;18.40;99.90;;;;;;4999814;28;8931;-58
2022/09/29 10:16:16;;;;;;;;;3.00;3.00;18.50;99.90;;;;;;5004480;28;9073;-57
2022/09/29 10:18:51;;;;;;;;;4.00;4.00;18.40;99.90;;;;;;4990786;28;9126;-58
2022/09/29 10:21:38;;;;;;;;;8.67;5.67;18.30;99.90;;;;;;4968643;28;8972;-57
2022/09/29 10:24:29;;;;;;;;;4.33;4.33;18.30;99.90;;;;;;5000730;28;9164;-62
2022/09/29 10:27:02;;;;;;;;;7.33;5.33;18.40;99.90;;;;;;5002091;28;9201;-63
2022/09/29 10:29:39;;;;;;;;;5.67;5.67;18.40;99.90;;;;;;4994696;28;9167;-62
2022/09/29 10:32:22;;;;;;;;;5.00;5.00;18.50;99.90;;;;;;4997608;28;9233;-62
2022/09/29 10:35:16;;;;;;;;;2.00;2.00;18.50;99.90;;;;;;4981064;28;9143;-58
2022/09/29 10:38:00;;;;;;;;;7.00;5.33;18.50;99.90;;;;;;4984811;28;9250;-60
2022/09/29 10:40:35;;;;;;;;;0.00;0.00;18.50;99.90;;;;;;5006349;28;9266;-62
2022/09/29 10:43:43;;;;;;;;;5.00;5.00;18.50;99.90;;;;;;4975738;28;9025;-57
2022/09/29 10:46:47;;;;;;;;;5.00;5.00;18.40;99.90;;;;;;4996223;28;10504;-57
2022/09/29 10:49:28;;;;;;;;;7.00;7.00;18.30;99.90;;;;;;4974947;28;9330;-59
2022/09/29 10:52:03;;;;;;;;;5.67;5.00;18.30;99.90;;;;;;4987781;28;9459;-58
2022/09/29 10:54:40;;;;;;;;;3.33;3.33;18.20;99.90;;;;;;5006568;28;9315;-61
2022/09/29 10:57:15;;;;;;;;;6.33;6.33;18.20;99.90;;;;;;5004917;28;9238;-61
2022/09/29 10:59:51;;;;;;;;;5.67;5.67;18.20;99.90;;;;;;4985369;28;9299;-61
2022/09/29 11:02:27;;;;;;;;;4.33;4.33;18.20;99.90;;;;;;4994019;28;9072;-61
2022/09/29 11:05:01;;;;;;;;;5.00;5.00;18.10;99.90;;;;;;4981108;28;9231;-56
2022/09/29 11:07:33;;;;;;;;;5.00;5.00;18.10;99.90;;;;;;4997259;28;9969;-57
2022/09/29 11:10:04;;;;;;;;;6.00;6.00;18.10;99.90;;;;;;5008031;28;9458;-58
2022/09/29 11:12:40;;;;;;;;;6.00;6.00;18.10;99.90;;;;;;4996966;28;9442;-58
2022/09/29 11:15:39;;;;;;;;;4.33;4.33;18.00;99.90;;;;;;4988453;28;9395;-58
2022/09/29 11:18:48;;;;;;;;;6.00;6.00;17.90;99.90;;;;;;4995776;28;9178;-61
2022/09/29 11:21:43;;;;;;;;;4.33;4.33;17.90;99.90;;;;;;4967868;28;9378;-62
2022/09/29 11:24:40;;;;;;;;;5.00;5.00;17.90;99.90;;;;;;4998036;28;9170;-61
2022/09/29 11:27:11;;;;;;;;;4.00;4.00;18.00;99.90;;;;;;4999607;28;9231;-61
2022/09/29 11:29:55;;;;;;;;;5.00;5.00;18.00;99.90;;;;;;4999165;28;9308;-56
2022/09/29 11:32:38;;;;;;;;;5.67;5.00;17.90;99.90;;;;;;4997893;28;9231;-57
2022/09/29 11:35:21;;;;;;;;;4.00;4.00;17.90;99.90;;;;;;4999272;28;9152;-57
2022/09/29 11:38:31;;;;;;;;;4.00;4.00;17.90;99.90;;;;;;4991103;28;9162;-61
2022/09/29 11:41:14;;;;;;;;;6.00;6.00;17.90;99.90;;;;;;5001102;28;9387;-60
2022/09/29 11:43:45;;;;;;;;;5.33;5.33;17.80;99.90;;;;;;4996369;28;9262;-57
2022/09/29 11:46:19;;;;;;;;;3.00;1.67;17.70;99.90;;;;;;4990078;28;9206;-58
2022/09/29 11:48:53;;;;;;;;;7.00;7.00;17.70;99.90;;;;;;5000627;28;9195;-60
2022/09/29 11:51:55;;;;;;;;;8.00;6.00;17.70;99.90;;;;;;5007608;28;9424;-61
2022/09/29 11:54:33;;;;;;;;;5.33;5.33;17.80;99.90;;;;;;4997917;28;9238;-61
2022/09/29 11:57:11;;;;;;;;;5.00;5.00;17.80;99.90;;;;;;4990776;28;10069;-60
2022/09/29 12:00:08;;;;;;;;;6.00;6.00;17.70;99.90;;;;;;5002947;28;9474;-57
2022/09/29 12:02:58;;;;;;;;;5.00;5.00;17.60;99.90;;;;;;4998775;28;9549;-56
2022/09/29 12:05:54;;;;;;;;;6.00;6.00;17.70;99.90;;;;;;4996284;28;9397;-57
2022/09/29 12:08:44;;;;;;;;;6.33;6.33;17.70;99.90;;;;;;4996183;28;9230;-57
2022/09/29 12:11:47;;;;;;;;;7.00;6.00;17.70;99.90;;;;;;4991448;28;9334;-57
2022/09/29 12:15:13;;;;;;;;;4.67;4.67;17.70;99.90;;;;;;4998393;28;9231;-61
2022/09/29 12:18:08;;;;;;;;;5.00;5.00;17.90;99.90;;;;;;4979144;28;9530;-62
2022/09/29 12:20:46;;;;;;;;;7.33;7.33;17.90;99.90;;;;;;4980916;28;9418;-62
2022/09/29 12:23:24;;;;;;;;;7.00;7.00;18.00;99.90;;;;;;4992045;28;9430;-58
2022/09/29 12:26:09;;;;;;;;;6.67;6.67;18.20;99.90;;;;;;4986694;28;9571;-58
2022/09/29 12:28:59;;;;;;;;;5.33;5.33;18.10;99.90;;;;;;4997001;28;9320;-62
2022/09/29 12:31:38;;;;;;;;;7.50;7.50;17.90;99.90;;;;;;4974357;28;9592;-56
2022/09/29 12:34:29;;;;;;;;;8.50;8.50;17.80;99.90;;;;;;4981176;28;9743;-57
2022/09/29 12:37:11;;;;;;;;;9.00;9.00;17.90;99.90;;;;;;4998788;28;9661;-61
2022/09/29 12:39:46;;;;;;;;;7.50;7.50;17.90;99.90;;;;;;4997305;28;9446;-55
2022/09/29 12:42:36;;;;;;;;;7.25;7.25;18.00;99.90;;;;;;4986945;28;9757;-57
2022/09/29 12:45:27;;;;;;;;;8.00;8.00;18.00;99.90;;;;;;5004636;28;9692;-61
2022/09/29 12:48:23;;;;;;;;;8.25;8.25;18.20;99.90;;;;;;5003869;28;9697;-57
2022/09/29 12:51:17;;;;;;;;;8.00;8.00;18.30;99.90;;;;;;4999493;28;9844;-58
2022/09/29 12:54:00;;;;;;;;;7.00;7.00;18.20;99.90;;;;;;5001810;28;9690;-61
2022/09/29 12:56:42;;;;;;;;;9.67;9.33;18.10;99.90;;;;;;4998444;28;9448;-62
2022/09/29 12:59:33;;;;;;;;;4.33;4.33;18.10;99.90;;;;;;4983188;28;9472;-58
2022/09/29 13:02:22;;;;;;;;;4.00;4.00;17.90;99.90;;;;;;5004699;28;9665;-57
2022/09/29 13:05:20;;;;;;;;;7.00;7.00;18.10;99.90;;;;;;5008025;28;9483;-61
2022/09/29 13:08:06;;;;;;;;;10.25;9.00;18.00;99.90;;;;;;5001877;28;9641;-62
2022/09/29 13:10:44;;;;;;;;;8.00;8.00;18.20;99.90;;;;;;4996742;28;9702;-61
2022/09/29 13:13:45;;;;;;;;;8.33;8.33;18.20;99.90;;;;;;5005679;28;9513;-57
2022/09/29 13:16:21;;;;;;;;;8.33;8.33;18.20;99.90;;;;;;5005616;28;10180;-57
2022/09/29 13:19:12;;;;;;;;;8.50;8.50;18.40;99.90;;;;;;5000912;28;9521;-64
2022/09/29 13:22:20;;;;;;;;;9.00;9.00;18.40;99.90;;;;;;5003226;28;9743;-64
2022/09/29 13:25:14;;;;;;;;;6.33;6.33;18.60;99.90;;;;;;5008051;28;9643;-55
2022/09/29 13:27:48;;;;;;;;;6.33;6.33;18.60;99.90;;;;;;5000507;28;9454;-56
2022/09/29 13:30:36;;;;;;;;;7.33;7.33;18.60;99.90;;;;;;5005658;28;9536;-57
2022/09/29 13:33:24;;;;;;;;;7.00;7.00;18.60;99.90;;;;;;5003317;28;9400;-56
2022/09/29 13:35:59;;;;;;;;;6.00;6.00;18.70;99.90;;;;;;4976530;28;9326;-55
2022/09/29 13:38:37;;;;;;;;;9.00;8.00;19.00;99.90;;;;;;4987409;28;9335;-55
2022/09/29 13:41:17;;;;;;;;;7.33;7.33;19.30;99.90;;;;;;5007755;28;10543;-56
2022/09/29 13:43:58;;;;;;;;;7.33;6.67;19.40;99.90;;;;;;4989532;28;9618;-58
2022/09/29 13:46:31;;;;;;;;;10.00;8.33;19.50;99.90;;;;;;5003262;28;9326;-57
2022/09/29 13:49:11;;;;;;;;;8.00;8.00;19.60;99.90;;;;;;5005592;28;9536;-57
2022/09/29 13:51:44;;;;;;;;;6.33;5.00;19.50;99.90;;;;;;5001481;28;9179;-58
2022/09/29 13:54:33;;;;;;;;;6.00;6.00;19.70;99.90;;;;;;5002168;28;9327;-62
2022/09/29 13:57:19;;;;;;;;;5.67;5.67;19.70;99.90;;;;;;4998277;28;9373;-64
2022/09/29 13:59:56;;;;;;;;;7.67;7.67;19.70;99.90;;;;;;4999734;28;9459;-62
2022/09/29 14:02:40;;;;;;;;;8.33;8.33;19.80;99.90;;;;;;5002479;28;10194;-63
2022/09/29 14:05:24;;;;;;;;;9.00;8.00;20.00;99.90;;;;;;4998856;28;9922;-63